createdAt,value
2022-12-14T00:00:55.544Z,5.10
2022-12-14T00:03:41.240Z,5.10
2022-12-14T00:06:30.230Z,5.20
2022-12-14T00:09:15.676Z,5.20
2022-12-14T00:12:01.001Z,5.10
2022-12-14T00:14:46.734Z,5.10
2022-12-14T00:17:32.385Z,5.40
2022-12-14T00:20:18.250Z,5.20
2022-12-14T00:23:04.566Z,5.20
2022-12-14T00:25:50.684Z,5.30
2022-12-14T00:28:37.106Z,5.20
2022-12-14T00:31:23.830Z,5.30
2022-12-14T00:34:09.687Z,5.40
2022-12-14T00:36:55.897Z,5.50
2022-12-14T00:39:41.485Z,5.50
2022-12-14T00:42:27.338Z,5.20
2022-12-14T00:45:12.968Z,4.60
2022-12-14T00:47:58.490Z,4.80
2022-12-14T00:50:49.464Z,5.10
2022-12-14T00:53:35.254Z,5.30
2022-12-14T00:56:21.086Z,5.40
2022-12-14T00:59:06.521Z,5.10
2022-12-14T01:01:52.715Z,5.10
2022-12-14T01:04:38.799Z,5.20
2022-12-14T01:07:24.462Z,5.00
2022-12-14T01:10:09.941Z,5.10
2022-12-14T01:12:55.849Z,5.20
2022-12-14T01:15:42.092Z,5.20
2022-12-14T01:18:27.706Z,5.10
2022-12-14T01:21:15.023Z,4.90
2022-12-14T01:24:03.243Z,5.00
2022-12-14T01:26:49.186Z,4.90
2022-12-14T01:29:34.813Z,5.00
2022-12-14T01:32:20.660Z,5.00
2022-12-14T01:35:06.444Z,5.20
2022-12-14T01:37:52.300Z,5.10
2022-12-14T01:40:37.997Z,5.10
2022-12-14T01:43:23.963Z,5.00
2022-12-14T01:46:10.071Z,4.90
2022-12-14T01:49:20.560Z,4.70
2022-12-14T01:52:33.659Z,4.80
2022-12-14T01:55:32.874Z,5.00
2022-12-14T01:58:24.128Z,5.20
2022-12-14T02:01:11.443Z,5.20
2022-12-14T02:03:57.280Z,5.10
2022-12-14T02:06:44.989Z,5.00
2022-12-14T02:09:33.597Z,4.90
2022-12-14T02:12:25.639Z,5.00
2022-12-14T02:15:13.399Z,4.90
2022-12-14T02:18:01.980Z,5.10
2022-12-14T02:21:22.714Z,5.10
2022-12-14T02:24:49.934Z,5.30
2022-12-14T02:28:09.777Z,5.30
2022-12-14T02:31:13.402Z,5.30
2022-12-14T02:34:05.392Z,5.20
2022-12-14T02:37:02.182Z,5.30
2022-12-14T02:40:18.741Z,5.30
2022-12-14T02:43:13.095Z,5.50
2022-12-14T02:46:07.767Z,5.30
2022-12-14T02:49:11.205Z,5.30
2022-12-14T02:52:07.097Z,5.20
2022-12-14T02:55:22.629Z,5.00
2022-12-14T02:58:21.019Z,5.00
2022-12-14T03:01:12.926Z,5.20
2022-12-14T03:03:59.199Z,5.30
2022-12-14T03:06:58.006Z,5.20
2022-12-14T03:09:44.014Z,5.10
2022-12-14T03:12:30.082Z,5.00
2022-12-14T03:15:18.646Z,5.00
2022-12-14T03:18:07.161Z,5.10
2022-12-14T03:20:55.442Z,5.10
2022-12-14T03:23:43.879Z,5.20
2022-12-14T03:27:04.736Z,5.20
2022-12-14T03:29:56.278Z,5.10
2022-12-14T03:32:47.853Z,5.20
2022-12-14T03:35:39.775Z,5.30
2022-12-14T03:38:57.486Z,5.20
2022-12-14T03:42:10.920Z,5.10
2022-12-14T03:45:22.179Z,5.10
2022-12-14T03:48:34.412Z,4.80
2022-12-14T03:51:26.889Z,4.80
2022-12-14T03:54:37.462Z,4.90
2022-12-14T03:57:48.261Z,5.00
2022-12-14T04:00:52.169Z,5.10
2022-12-14T04:03:45.693Z,5.10
2022-12-14T04:06:52.838Z,5.30
2022-12-14T04:09:50.611Z,5.50
2022-12-14T04:12:58.931Z,5.40
2022-12-14T04:16:04.666Z,5.40
2022-12-14T04:19:00.491Z,5.50
2022-12-14T04:22:08.385Z,5.40
2022-12-14T04:25:48.924Z,5.50
2022-12-14T04:29:02.771Z,5.50
2022-12-14T04:31:53.540Z,5.40
2022-12-14T04:34:43.133Z,5.30
2022-12-14T04:37:30.657Z,5.30
2022-12-14T04:40:29.303Z,5.50
2022-12-14T04:43:19.946Z,5.60
2022-12-14T04:46:10.115Z,5.70
2022-12-14T04:49:18.814Z,5.70
2022-12-14T04:52:21.538Z,5.70
2022-12-14T04:55:32.861Z,5.60
2022-12-14T04:58:25.810Z,5.70
2022-12-14T05:01:31.294Z,5.60
2022-12-14T05:04:55.189Z,5.70
2022-12-14T05:07:52.537Z,5.70
2022-12-14T05:10:44.102Z,5.70
2022-12-14T05:13:43.215Z,5.80
2022-12-14T05:16:37.445Z,5.80
2022-12-14T05:19:26.557Z,5.70
2022-12-14T05:22:12.832Z,5.80
2022-12-14T05:24:58.288Z,5.90
2022-12-14T05:27:44.090Z,6.00
2022-12-14T05:30:30.254Z,6.00
2022-12-14T05:33:20.379Z,6.00
2022-12-14T05:36:07.135Z,5.80
2022-12-14T05:38:52.688Z,5.90
2022-12-14T05:41:38.252Z,5.90
2022-12-14T05:44:23.904Z,6.00
2022-12-14T05:47:09.605Z,6.00
2022-12-14T05:49:55.598Z,6.00
2022-12-14T05:52:41.392Z,5.90
2022-12-14T05:55:27.152Z,6.00
2022-12-14T05:58:12.753Z,5.90
2022-12-14T06:01:02.962Z,5.90
2022-12-14T06:03:48.408Z,6.00
2022-12-14T06:06:34.424Z,6.00
2022-12-14T06:09:20.195Z,5.90
2022-12-14T06:12:06.136Z,6.00
2022-12-14T06:14:51.511Z,4.90
2022-12-14T06:17:37.620Z,4.10
2022-12-14T06:20:23.111Z,4.20
2022-12-14T06:23:08.870Z,4.90
2022-12-14T06:25:55.848Z,5.20
2022-12-14T06:28:41.533Z,4.90
2022-12-14T06:31:30.321Z,4.50
2022-12-14T06:34:16.611Z,4.70
2022-12-14T06:37:02.746Z,5.10
2022-12-14T06:39:53.916Z,4.90
2022-12-14T06:42:43.183Z,4.60
2022-12-14T06:45:30.063Z,4.80
2022-12-14T06:48:15.917Z,5.20
2022-12-14T06:51:02.672Z,5.40
2022-12-14T06:53:56.461Z,5.40
2022-12-14T06:56:43.658Z,4.50
2022-12-14T06:59:29.711Z,4.60
2022-12-14T07:02:15.585Z,5.10
2022-12-14T07:05:01.641Z,4.80
2022-12-14T07:07:47.195Z,4.70
2022-12-14T07:10:35.057Z,4.80
2022-12-14T07:13:21.666Z,4.90
2022-12-14T07:16:09.025Z,5.20
2022-12-14T07:18:55.885Z,4.70
2022-12-14T07:21:41.574Z,4.50
2022-12-14T07:24:27.209Z,4.40
2022-12-14T07:27:12.888Z,5.20
2022-12-14T07:29:58.794Z,5.50
2022-12-14T07:32:44.475Z,5.60
2022-12-14T07:35:30.289Z,5.40
2022-12-14T07:38:17.065Z,5.90
2022-12-14T07:41:24.228Z,6.10
2022-12-14T07:44:10.662Z,5.60
2022-12-14T07:46:56.558Z,5.50
2022-12-14T07:49:42.305Z,5.80
2022-12-14T07:52:32.799Z,6.00
2022-12-14T07:55:21.762Z,6.10
2022-12-14T07:58:09.507Z,6.20
2022-12-14T08:00:55.003Z,5.60
2022-12-14T08:03:44.166Z,5.60
2022-12-14T08:06:30.605Z,5.90
2022-12-14T08:09:17.398Z,5.40
2022-12-14T08:12:03.094Z,4.60
2022-12-14T08:14:49.986Z,4.80
2022-12-14T08:17:36.253Z,5.40
2022-12-14T08:20:22.152Z,5.90
2022-12-14T08:23:08.081Z,5.70
2022-12-14T08:25:55.856Z,5.00
2022-12-14T08:28:41.921Z,5.00
2022-12-14T08:31:30.569Z,5.20
2022-12-14T08:34:22.567Z,5.20
2022-12-14T08:37:07.970Z,4.80
2022-12-14T08:39:53.738Z,4.30
2022-12-14T08:42:39.598Z,4.80
2022-12-14T08:45:25.028Z,5.40
2022-12-14T08:48:11.078Z,5.20
2022-12-14T08:51:06.325Z,4.70
2022-12-14T08:53:54.698Z,5.00
2022-12-14T08:56:40.929Z,4.90
2022-12-14T08:59:59.319Z,4.60
2022-12-14T09:02:33.465Z,5.10
2022-12-14T09:05:19.248Z,5.70
2022-12-14T09:08:05.258Z,5.90
2022-12-14T09:10:51.638Z,5.80
2022-12-14T09:13:37.494Z,5.70
2022-12-14T09:16:26.463Z,5.20
2022-12-14T09:19:12.519Z,5.10
2022-12-14T09:21:58.891Z,5.60
2022-12-14T09:24:44.257Z,6.20
2022-12-14T09:27:29.816Z,6.10
2022-12-14T09:30:15.560Z,6.00
2022-12-14T09:33:01.624Z,6.00
2022-12-14T09:35:48.388Z,6.10
2022-12-14T09:38:36.358Z,6.00
2022-12-14T09:41:34.313Z,6.10
2022-12-14T09:44:32.738Z,6.00
2022-12-14T09:47:48.739Z,6.00
2022-12-14T09:50:34.986Z,6.60
2022-12-14T09:53:22.014Z,6.90
2022-12-14T09:56:11.144Z,6.50
2022-12-14T09:58:59.047Z,6.30
2022-12-14T10:05:11.286Z,6.40
2022-12-14T10:08:12.375Z,6.20
2022-12-14T10:11:07.632Z,6.60
2022-12-14T10:13:53.197Z,6.90
2022-12-14T10:16:51.481Z,7.00
2022-12-14T10:19:37.330Z,7.10
2022-12-14T10:22:30.750Z,6.80
2022-12-14T10:25:33.010Z,6.40
2022-12-14T10:28:21.931Z,6.70
2022-12-14T10:31:13.916Z,6.60
2022-12-14T10:34:12.644Z,6.90
2022-12-14T10:37:26.843Z,7.10
2022-12-14T10:40:31.100Z,7.20
2022-12-14T10:43:29.900Z,7.30
2022-12-14T10:46:44.890Z,7.30
2022-12-14T10:49:40.128Z,7.50
2022-12-14T10:52:30.911Z,7.60
2022-12-14T10:55:20.491Z,7.40
2022-12-14T10:58:06.816Z,7.80
2022-12-14T11:00:54.792Z,6.90
2022-12-14T11:03:42.267Z,6.00
2022-12-14T11:06:28.518Z,6.30
2022-12-14T11:09:22.727Z,6.80
2022-12-14T11:12:16.073Z,7.10
2022-12-14T11:15:05.383Z,7.80
2022-12-14T11:18:16.378Z,6.80
2022-12-14T11:21:05.424Z,6.80
2022-12-14T11:23:54.682Z,7.20
2022-12-14T11:26:43.016Z,7.40
2022-12-14T11:29:40.543Z,7.70
2022-12-14T11:32:26.469Z,7.60
2022-12-14T11:35:18.948Z,7.80
2022-12-14T11:38:05.699Z,7.80
2022-12-14T11:40:52.233Z,7.80
2022-12-14T11:43:39.019Z,7.60
2022-12-14T11:46:48.863Z,7.50
2022-12-14T11:49:40.505Z,7.40
2022-12-14T11:52:41.236Z,7.50
2022-12-14T11:55:39.197Z,7.70
2022-12-14T11:58:29.745Z,7.80
2022-12-14T12:01:19.533Z,7.90
2022-12-14T12:04:12.936Z,8.00
2022-12-14T12:07:04.355Z,8.10
2022-12-14T12:09:50.469Z,8.00
2022-12-14T12:12:36.423Z,8.10
2022-12-14T12:15:25.995Z,7.80
2022-12-14T12:18:35.521Z,7.70
2022-12-14T12:21:38.722Z,7.80
2022-12-14T12:24:30.243Z,7.80
2022-12-14T12:27:17.756Z,7.80
2022-12-14T12:30:29.764Z,8.00
2022-12-14T12:33:44.859Z,6.90
2022-12-14T12:36:33.060Z,7.20
2022-12-14T12:39:25.115Z,7.70
2022-12-14T12:42:38.172Z,7.90
2022-12-14T12:45:43.125Z,8.00
2022-12-14T12:48:38.843Z,8.30
2022-12-14T12:51:43.407Z,7.80
2022-12-14T12:54:36.325Z,7.50
2022-12-14T12:57:24.199Z,8.00
2022-12-14T13:00:21.041Z,8.00
2022-12-14T13:03:23.543Z,7.80
2022-12-14T13:06:21.830Z,7.60
2022-12-14T13:09:37.046Z,7.70
2022-12-14T13:12:37.857Z,7.80
2022-12-14T13:15:28.293Z,8.00
2022-12-14T13:21:44.327Z,8.30
2022-12-14T13:24:36.191Z,8.10
2022-12-14T13:27:30.740Z,8.20
2022-12-14T13:30:41.905Z,8.20
2022-12-14T13:33:51.009Z,8.10
2022-12-14T13:36:37.094Z,8.00
2022-12-14T13:39:50.554Z,8.00
2022-12-14T13:42:46.202Z,8.30
2022-12-14T13:45:46.037Z,8.30
2022-12-14T13:48:39.432Z,8.30
2022-12-14T13:51:30.018Z,8.30
2022-12-14T13:54:20.613Z,8.20
2022-12-14T13:57:20.751Z,7.90
2022-12-14T14:00:06.924Z,7.70
2022-12-14T14:02:57.367Z,7.60
2022-12-14T14:05:45.780Z,7.40
2022-12-14T14:08:41.000Z,7.60
2022-12-14T14:12:06.353Z,7.80
2022-12-14T14:14:58.237Z,8.00
2022-12-14T14:17:46.340Z,8.00
2022-12-14T14:20:42.804Z,7.80
2022-12-14T14:23:34.971Z,7.90
2022-12-14T14:26:31.845Z,7.80
2022-12-14T14:29:23.912Z,7.90
2022-12-14T14:32:34.485Z,8.00
2022-12-14T14:35:37.845Z,7.90
2022-12-14T14:38:31.552Z,7.90
2022-12-14T14:41:28.071Z,7.90
2022-12-14T14:44:28.410Z,7.90
2022-12-14T14:47:29.023Z,7.90
2022-12-14T14:50:15.224Z,8.00
2022-12-14T14:53:10.107Z,7.80
2022-12-14T14:56:00.374Z,7.50
2022-12-14T14:58:45.861Z,7.50
2022-12-14T15:01:31.904Z,7.30
2022-12-14T15:04:23.964Z,7.30
2022-12-14T15:07:15.785Z,7.30
2022-12-14T15:10:24.295Z,7.40
2022-12-14T15:13:23.221Z,7.30
2022-12-14T15:16:22.353Z,7.30
2022-12-14T15:19:26.371Z,7.40
2022-12-14T15:22:15.975Z,7.50
2022-12-14T15:25:02.445Z,7.60
2022-12-14T15:27:48.436Z,7.60
2022-12-14T15:30:35.604Z,7.50
2022-12-14T15:33:33.924Z,7.60
2022-12-14T15:36:29.054Z,7.70
2022-12-14T15:39:28.137Z,7.60
2022-12-14T15:42:18.303Z,7.40
2022-12-14T15:45:13.966Z,7.40
2022-12-14T15:48:26.144Z,7.40
2022-12-14T15:51:14.882Z,7.40
2022-12-14T15:54:03.978Z,7.50
2022-12-14T15:56:53.348Z,7.50
2022-12-14T15:59:40.309Z,7.50
2022-12-14T16:02:32.008Z,7.50
2022-12-14T16:05:21.915Z,7.50
2022-12-14T16:08:10.548Z,7.50
2022-12-14T16:11:00.620Z,7.60
2022-12-14T16:13:47.213Z,7.60
2022-12-14T16:16:33.627Z,7.60
2022-12-14T16:19:28.921Z,7.60
2022-12-14T16:22:22.989Z,7.10
2022-12-14T16:25:08.677Z,7.20
2022-12-14T16:27:55.061Z,7.40
2022-12-14T16:31:03.051Z,7.50
2022-12-14T16:34:06.913Z,7.60
2022-12-14T16:37:30.888Z,7.70
2022-12-14T16:40:37.139Z,7.60
2022-12-14T16:43:29.386Z,7.60
2022-12-14T16:46:16.465Z,7.60
2022-12-14T16:49:20.899Z,7.60
2022-12-14T16:52:31.988Z,7.60
2022-12-14T16:55:19.946Z,7.70
2022-12-14T16:58:06.323Z,7.80
2022-12-14T17:01:06.293Z,7.90
2022-12-14T17:04:05.503Z,7.90
2022-12-14T17:06:54.318Z,7.80
2022-12-14T17:09:40.354Z,7.70
2022-12-14T17:12:26.955Z,7.80
2022-12-14T17:15:14.864Z,7.70
2022-12-14T17:18:03.961Z,7.70
2022-12-14T17:20:49.555Z,7.60
2022-12-14T17:23:39.086Z,7.60
2022-12-14T17:26:31.294Z,7.60
2022-12-14T17:29:20.933Z,7.50
2022-12-14T17:32:11.940Z,7.60
2022-12-14T17:34:58.313Z,7.70
2022-12-14T17:37:44.668Z,7.70
2022-12-14T17:40:30.451Z,7.70
2022-12-14T17:43:20.919Z,7.70
2022-12-14T17:46:06.481Z,7.60
2022-12-14T17:48:52.433Z,7.50
2022-12-14T17:51:42.035Z,7.60
2022-12-14T17:54:29.256Z,7.70
2022-12-14T17:57:25.800Z,7.70
2022-12-14T18:00:41.812Z,7.80
2022-12-14T18:03:33.274Z,7.90
2022-12-14T18:06:19.494Z,7.60
2022-12-14T18:09:07.991Z,7.60
2022-12-14T18:12:21.664Z,7.60
2022-12-14T18:14:59.370Z,7.70
2022-12-14T18:17:46.017Z,7.80
2022-12-14T18:20:36.193Z,7.80
2022-12-14T18:23:23.047Z,7.60
2022-12-14T18:26:09.553Z,7.60
2022-12-14T18:28:56.331Z,7.80
2022-12-14T18:31:42.548Z,7.80
2022-12-14T18:34:28.342Z,7.60
2022-12-14T18:37:16.342Z,7.60
2022-12-14T18:40:05.592Z,7.70
2022-12-14T18:42:51.702Z,7.70
2022-12-14T18:45:38.351Z,7.60
2022-12-14T18:48:25.494Z,7.60
2022-12-14T18:51:23.423Z,7.70
2022-12-14T18:54:10.113Z,7.70
2022-12-14T18:56:55.942Z,7.60
2022-12-14T18:59:42.776Z,7.60
2022-12-14T19:02:29.010Z,7.60
2022-12-14T19:05:16.927Z,7.60
2022-12-14T19:08:03.023Z,7.60
2022-12-14T19:10:49.022Z,7.70
2022-12-14T19:13:34.564Z,7.60
2022-12-14T19:16:20.910Z,7.80
2022-12-14T19:19:06.688Z,7.90
2022-12-14T19:21:52.451Z,7.90
2022-12-14T19:24:38.120Z,7.70
2022-12-14T19:27:50.827Z,7.60
2022-12-14T19:30:28.983Z,7.40
2022-12-14T19:33:14.896Z,7.40
2022-12-14T19:36:04.726Z,7.40
2022-12-14T19:38:50.636Z,7.40
2022-12-14T19:41:36.485Z,7.50
2022-12-14T19:44:22.213Z,7.60
2022-12-14T19:47:08.293Z,7.70
2022-12-14T19:49:54.105Z,7.60
2022-12-14T19:52:39.867Z,7.70
2022-12-14T19:55:25.428Z,7.70
2022-12-14T19:58:11.323Z,7.60
2022-12-14T20:00:57.366Z,7.70
2022-12-14T20:03:43.308Z,7.60
2022-12-14T20:06:29.483Z,7.30
2022-12-14T20:09:16.946Z,7.50
2022-12-14T20:12:02.999Z,7.50
2022-12-14T20:14:49.515Z,7.30
2022-12-14T20:17:35.237Z,7.40
2022-12-14T20:20:21.615Z,7.40
2022-12-14T20:23:08.672Z,7.50
2022-12-14T20:25:59.091Z,7.60
2022-12-14T20:28:49.147Z,7.50
2022-12-14T20:31:36.682Z,7.30
2022-12-14T20:34:22.955Z,7.30
2022-12-14T20:37:08.829Z,7.20
2022-12-14T20:39:54.669Z,7.30
2022-12-14T20:42:40.229Z,7.30
2022-12-14T20:45:26.066Z,7.40
2022-12-14T20:48:12.650Z,7.00
2022-12-14T20:51:02.977Z,7.10
2022-12-14T20:53:49.371Z,7.40
2022-12-14T20:56:35.751Z,7.50
2022-12-14T20:59:20.979Z,7.50
2022-12-14T21:02:06.994Z,7.50
2022-12-14T21:04:53.162Z,7.60
2022-12-14T21:07:38.648Z,7.60
2022-12-14T21:10:24.495Z,7.60
2022-12-14T21:13:10.397Z,7.70
2022-12-14T21:15:56.175Z,7.10
2022-12-14T21:18:42.348Z,7.40
2022-12-14T21:21:28.082Z,7.40
2022-12-14T21:24:25.668Z,7.40
2022-12-14T21:27:22.447Z,7.40
2022-12-14T21:30:10.567Z,7.40
2022-12-14T21:32:55.951Z,7.40
2022-12-14T21:35:41.557Z,7.40
2022-12-14T21:38:28.231Z,7.50
2022-12-14T21:41:32.276Z,7.50
2022-12-14T21:44:18.240Z,7.40
2022-12-14T21:47:06.544Z,7.50
2022-12-14T21:49:52.267Z,7.50
2022-12-14T21:52:38.215Z,7.50
2022-12-14T21:55:23.822Z,7.30
2022-12-14T21:58:18.788Z,7.20
2022-12-14T22:01:09.126Z,7.00
2022-12-14T22:03:54.919Z,7.10
2022-12-14T22:06:40.825Z,7.10
2022-12-14T22:09:27.172Z,7.10
2022-12-14T22:12:13.639Z,7.10
2022-12-14T22:14:59.651Z,7.00
2022-12-14T22:17:45.569Z,7.10
2022-12-14T22:20:31.404Z,7.20
2022-12-14T22:23:16.721Z,7.40
2022-12-14T22:26:02.170Z,7.40
2022-12-14T22:28:52.480Z,7.40
2022-12-14T22:31:38.651Z,7.10
2022-12-14T22:34:24.521Z,6.90
2022-12-14T22:37:14.042Z,6.80
2022-12-14T22:40:00.203Z,7.00
2022-12-14T22:42:46.710Z,7.30
2022-12-14T22:45:34.849Z,7.30
2022-12-14T22:48:20.427Z,7.40
2022-12-14T22:51:10.330Z,7.40
2022-12-14T22:53:56.223Z,7.10
2022-12-14T22:56:46.372Z,7.30
2022-12-14T22:59:40.464Z,7.40
2022-12-14T23:02:26.337Z,7.50
2022-12-14T23:05:12.877Z,7.50
2022-12-14T23:07:58.433Z,7.50
2022-12-14T23:11:02.635Z,7.10
2022-12-14T23:14:06.509Z,7.00
2022-12-14T23:17:10.471Z,7.10
2022-12-14T23:20:14.480Z,7.10
2022-12-14T23:23:18.582Z,7.00
2022-12-14T23:26:23.180Z,7.20
2022-12-14T23:29:27.054Z,7.40
2022-12-14T23:32:31.126Z,7.30
2022-12-14T23:35:35.242Z,7.30
2022-12-14T23:38:39.046Z,7.30
2022-12-14T23:41:43.613Z,7.10
2022-12-14T23:44:47.889Z,7.10
2022-12-14T23:47:52.160Z,7.20
2022-12-14T23:50:55.847Z,7.30
2022-12-14T23:53:59.916Z,7.30
2022-12-14T23:57:03.982Z,7.50
